Time;durP1;ratioP1;P1;durP2;ratioP2;P2;SDS_P1;SDS_P2;PMS_P1;PMS_P2;Temp;Humidity;BMP_temperature;BMP_pressure;BME280_temperature;BME280_humidity;BME280_pressure;Samples;Min_cycle;Max_cycle;Signal;HPM_P1;HPM_P2
2022/07/08 00:00:19;;;;;;;1.83;0.90;;;;;;;27.59;43.81;100327.94;5113305;28;20020;-91
2022/07/08 00:02:59;;;;;;;2.03;0.98;;;;;;;27.59;43.90;100330.63;5094610;28;20054;-87
2022/07/08 00:05:25;;;;;;;2.50;0.90;;;;;;;27.56;43.74;100328.13;5127185;28;20023;-88
2022/07/08 00:07:51;;;;;;;2.08;0.88;;;;;;;27.56;44.05;100332.66;5095040;28;20372;-88
2022/07/08 00:10:16;;;;;;;2.97;1.10;;;;;;;27.55;43.90;100331.78;5088036;28;20077;-88
2022/07/08 00:12:42;;;;;;;1.75;0.77;;;;;;;27.55;44.07;100330.94;5122993;28;20369;-88
2022/07/08 00:15:09;;;;;;;2.78;1.10;;;;;;;27.52;44.12;100326.66;5120259;28;20024;-87
2022/07/08 00:17:37;;;;;;;3.05;1.00;;;;;;;27.52;43.88;100334.72;5087290;28;20020;-86
2022/07/08 00:20:04;;;;;;;2.40;1.02;;;;;;;27.52;44.26;100340.06;5086968;28;20101;-87
2022/07/08 00:22:29;;;;;;;1.65;0.93;;;;;;;27.51;44.11;100334.81;5105346;28;20020;-87
2022/07/08 00:24:55;;;;;;;2.35;1.02;;;;;;;27.48;44.31;100334.09;5088865;28;20016;-87
2022/07/08 00:27:21;;;;;;;2.13;1.00;;;;;;;27.50;44.13;100325.91;5087740;28;20106;-88
2022/07/08 00:29:47;;;;;;;2.30;0.90;;;;;;;27.48;44.08;100325.19;5087906;28;20469;-88
2022/07/08 00:32:12;;;;;;;2.58;1.10;;;;;;;27.49;44.10;100332.25;5092400;28;20111;-87
2022/07/08 00:34:38;;;;;;;3.03;1.10;;;;;;;27.46;44.21;100330.66;5089513;28;20039;-88
2022/07/08 00:37:04;;;;;;;2.78;1.00;;;;;;;27.47;44.04;100332.34;5125634;28;20020;-89
2022/07/08 00:39:29;;;;;;;1.67;1.10;;;;;;;27.46;44.05;100335.16;5092379;28;20028;-88
2022/07/08 00:41:55;;;;;;;3.17;1.02;;;;;;;27.45;44.32;100336.16;5077867;28;20031;-88
2022/07/08 00:44:21;;;;;;;2.95;1.17;;;;;;;27.42;44.18;100336.34;5129499;28;20020;-89
2022/07/08 00:46:47;;;;;;;2.22;1.02;;;;;;;27.41;44.27;100329.28;5091098;28;20039;-89
2022/07/08 00:49:12;;;;;;;1.70;1.00;;;;;;;27.42;44.38;100329.19;5087416;28;20027;-88
2022/07/08 00:51:40;;;;;;;2.40;1.17;;;;;;;27.40;44.21;100327.59;5106914;28;20047;-87
2022/07/08 00:54:06;;;;;;;2.80;1.00;;;;;;;27.41;44.32;100330.13;5088984;28;20020;-88
2022/07/08 00:56:32;;;;;;;3.67;1.73;;;;;;;27.39;44.28;100331.22;5092543;28;20020;-88
2022/07/08 00:58:58;;;;;;;3.88;1.20;;;;;;;27.40;44.09;100328.44;5089927;28;20020;-87
2022/07/08 01:01:23;;;;;;;1.92;1.23;;;;;;;27.37;44.40;100328.69;5123340;28;20028;-87
2022/07/08 01:03:49;;;;;;;4.18;1.45;;;;;;;27.38;44.39;100326.84;5088143;28;20028;-87
2022/07/08 01:06:15;;;;;;;2.72;1.48;;;;;;;27.38;44.45;100332.19;5085610;28;20057;-87
2022/07/08 01:08:41;;;;;;;2.92;1.38;;;;;;;27.34;44.60;100329.75;5085159;28;20036;-87
2022/07/08 01:11:11;;;;;;;3.13;1.40;;;;;;;27.34;44.38;100320.84;5090151;28;20035;-88
2022/07/08 01:13:38;;;;;;;3.30;1.50;;;;;;;27.33;44.53;100325.38;5125973;28;20028;-88
2022/07/08 01:16:05;;;;;;;3.67;1.30;;;;;;;27.33;44.21;100325.38;5095108;28;20020;-87
2022/07/08 01:18:32;;;;;;;3.55;1.27;;;;;;;27.31;44.60;100329.97;5088174;28;20044;-88
2022/07/08 01:20:58;;;;;;;2.50;1.27;;;;;;;27.29;44.64;100331.91;5123089;28;20071;-87
2022/07/08 01:23:24;;;;;;;3.00;1.27;;;;;;;27.26;44.35;100334.81;5089074;28;20047;-88
2022/07/08 01:25:53;;;;;;;4.05;1.67;;;;;;;27.27;44.69;100339.22;5089943;28;20020;-89
2022/07/08 01:28:20;;;;;;;1.92;1.27;;;;;;;27.26;44.40;100342.84;5088088;28;20091;-89
2022/07/08 01:30:45;;;;;;;2.97;1.40;;;;;;;27.26;44.82;100342.84;5106354;28;20533;-90
2022/07/08 01:33:11;;;;;;;2.65;1.25;;;;;;;27.24;44.65;100344.81;5094262;28;20087;-90
2022/07/08 01:35:37;;;;;;;1.88;1.20;;;;;;;27.23;44.75;100337.75;5090548;28;20024;-89
2022/07/08 01:38:03;;;;;;;2.58;1.48;;;;;;;27.23;44.97;100340.41;5091604;28;20091;-88
2022/07/08 01:40:29;;;;;;;2.83;1.17;;;;;;;27.23;44.96;100343.09;5090520;28;20020;-88
2022/07/08 01:42:55;;;;;;;3.08;1.20;;;;;;;27.19;44.98;100336.25;5091000;28;20450;-87
2022/07/08 01:45:20;;;;;;;3.10;1.27;;;;;;;27.21;45.02;100339.66;5088574;28;20033;-87
2022/07/08 01:47:46;;;;;;;3.35;1.55;;;;;;;27.20;44.72;100343.31;5089469;28;20107;-88
2022/07/08 01:50:12;;;;;;;2.45;1.13;;;;;;;27.18;44.94;100339.91;5085511;28;20024;-88
2022/07/08 01:52:37;;;;;;;3.35;1.40;;;;;;;27.19;45.05;100346.97;5123121;28;20049;-87
2022/07/08 01:55:04;;;;;;;3.97;1.33;;;;;;;27.18;44.89;100339.91;5088562;28;20020;-89
2022/07/08 01:57:31;;;;;;;3.42;1.30;;;;;;;27.16;44.80;100341.84;5107000;28;20096;-89
2022/07/08 01:59:57;;;;;;;3.05;1.50;;;;;;;27.15;45.07;100346.34;5090577;28;20123;-88
2022/07/08 02:02:23;;;;;;;2.22;1.00;;;;;;;27.14;44.97;100338.41;5091683;28;20051;-90
2022/07/08 02:04:50;;;;;;;3.40;1.27;;;;;;;27.15;45.02;100345.47;5093308;28;20023;-89
2022/07/08 02:07:16;;;;;;;2.78;1.27;;;;;;;27.14;45.14;100343.75;5098155;28;20028;-87
2022/07/08 02:09:42;;;;;;;3.60;1.23;;;;;;;27.15;45.18;100340.09;5098540;28;20027;-89
2022/07/08 02:12:20;;;;;;;3.83;1.30;;;;;;;27.14;44.92;100339.28;5097699;28;20030;-89
2022/07/08 02:15:03;;;;;;;2.45;1.20;;;;;;;27.14;45.15;100349.13;5131339;28;20020;-90
2022/07/08 02:17:30;;;;;;;3.90;1.30;;;;;;;27.12;45.32;100353.75;5097913;28;20028;-88
2022/07/08 02:19:56;;;;;;;3.40;1.17;;;;;;;27.11;44.89;100349.34;5098324;28;20044;-87
2022/07/08 02:22:22;;;;;;;3.05;1.15;;;;;;;27.11;45.14;100344.00;5095596;28;20020;-87
2022/07/08 02:24:48;;;;;;;3.35;1.30;;;;;;;27.10;45.02;100353.00;5090848;28;20016;-88
2022/07/08 02:27:14;;;;;;;3.45;1.42;;;;;;;27.06;45.18;100347.88;5091695;28;20020;-87
2022/07/08 02:29:40;;;;;;;3.13;1.52;;;;;;;27.06;45.06;100347.88;5090451;28;20036;-89
2022/07/08 02:32:06;;;;;;;2.22;1.10;;;;;;;27.06;44.91;100347.00;5091528;28;20088;-87
2022/07/08 02:34:32;;;;;;;2.33;1.08;;;;;;;27.06;44.99;100347.88;5108970;28;20031;-87
2022/07/08 02:36:58;;;;;;;2.40;1.00;;;;;;;27.05;45.09;100343.47;5092519;28;20596;-88
2022/07/08 02:39:24;;;;;;;4.40;1.70;;;;;;;27.05;45.24;100346.16;5095595;28;20036;-89
2022/07/08 02:41:50;;;;;;;3.42;1.20;;;;;;;27.05;44.77;100347.97;5095085;28;20065;-88
2022/07/08 02:44:17;;;;;;;2.10;1.15;;;;;;;27.04;45.18;100347.13;5078505;28;20043;-90
2022/07/08 02:46:44;;;;;;;3.17;1.30;;;;;;;27.01;44.95;100355.38;5113202;28;20028;-89
2022/07/08 02:49:10;;;;;;;3.92;1.15;;;;;;;26.99;45.23;100346.63;5116240;28;20031;-89
2022/07/08 02:51:36;;;;;;;3.05;1.05;;;;;;;26.99;45.29;100346.63;5096352;28;20024;-88
2022/07/08 02:54:04;;;;;;;1.75;0.93;;;;;;;26.98;44.81;100338.69;5094786;28;20468;-88
2022/07/08 02:56:30;;;;;;;3.38;1.33;;;;;;;26.98;45.21;100350.25;5094945;28;20052;-89
2022/07/08 02:58:57;;;;;;;2.95;1.17;;;;;;;26.96;45.28;100349.50;5094614;28;20039;-90
2022/07/08 03:01:23;;;;;;;1.95;1.10;;;;;;;26.93;45.00;100352.41;5095290;28;20465;-88
2022/07/08 03:03:48;;;;;;;2.22;1.17;;;;;;;26.91;44.90;100340.91;5095344;28;20024;-89
2022/07/08 03:06:15;;;;;;;3.08;1.20;;;;;;;26.91;45.08;100348.94;5097284;28;20063;-87
2022/07/08 03:08:41;;;;;;;2.80;1.35;;;;;;;26.87;45.41;100336.75;5097078;28;20028;-89
2022/07/08 03:11:10;;;;;;;2.22;1.00;;;;;;;26.88;45.32;100341.16;5097420;28;20092;-89
2022/07/08 03:13:36;;;;;;;3.35;1.13;;;;;;;26.85;45.03;100344.91;5095880;28;20039;-87
2022/07/08 03:16:04;;;;;;;2.00;1.00;;;;;;;26.86;45.27;100351.09;5095772;28;20091;-88
2022/07/08 03:18:32;;;;;;;2.00;1.15;;;;;;;26.84;45.33;100353.03;5096594;28;20366;-90
2022/07/08 03:20:57;;;;;;;2.30;1.20;;;;;;;26.84;44.86;100353.03;5096205;28;20038;-88
2022/07/08 03:23:23;;;;;;;3.33;1.10;;;;;;;26.81;45.13;100351.44;5113283;28;20024;-89
2022/07/08 03:25:49;;;;;;;1.55;0.98;;;;;;;26.83;44.85;100356.69;5080273;28;20054;-89
2022/07/08 03:28:15;;;;;;;4.18;1.17;;;;;;;26.79;45.07;100356.88;5093791;28;20028;-88
2022/07/08 03:30:41;;;;;;;3.13;1.20;;;;;;;26.80;45.23;100363.97;5094199;28;20032;-89
2022/07/08 03:33:07;;;;;;;5.10;1.20;;;;;;;26.77;45.42;100356.16;5094440;28;20034;-91
2022/07/08 03:35:33;;;;;;;3.67;1.50;;;;;;;26.79;45.06;100367.59;5094177;28;20047;-87
2022/07/08 03:37:59;;;;;;;3.53;1.27;;;;;;;26.78;45.06;100368.56;5094409;28;20114;-88
2022/07/08 03:43:10;;;;;;;5.15;1.45;;;;;;;26.75;45.25;100371.47;5108925;28;20101;-89
2022/07/08 03:45:36;;;;;;;3.65;1.58;;;;;;;26.73;45.29;100372.56;5090186;28;20096;-88
2022/07/08 03:48:03;;;;;;;3.45;1.65;;;;;;;26.73;45.00;100378.75;5089510;28;20024;-89
2022/07/08 03:50:29;;;;;;;3.75;1.50;;;;;;;26.74;45.15;100377.81;5090514;28;20024;-89
2022/07/08 03:52:55;;;;;;;4.00;1.52;;;;;;;26.70;45.30;100380.78;5091966;28;20024;-89
2022/07/08 03:55:23;;;;;;;2.97;1.40;;;;;;;26.70;45.15;100378.97;5089995;28;20046;-88
2022/07/08 03:57:49;;;;;;;2.90;1.67;;;;;;;26.68;45.26;100394.28;5121932;28;20024;-88
2022/07/08 04:00:15;;;;;;;3.75;1.50;;;;;;;26.65;45.34;100392.69;5089337;28;20028;-88
2022/07/08 04:02:41;;;;;;;3.35;1.67;;;;;;;26.64;45.28;100385.63;5088283;28;20465;-88
2022/07/08 04:05:07;;;;;;;3.97;1.58;;;;;;;26.64;45.29;100392.81;5088299;28;20120;-87
2022/07/08 04:07:34;;;;;;;3.67;1.55;;;;;;;26.64;45.49;100390.13;5124918;28;20036;-88
2022/07/08 04:10:00;;;;;;;4.55;1.73;;;;;;;26.61;45.20;100385.84;5091609;28;20063;-87
2022/07/08 04:12:25;;;;;;;4.63;1.90;;;;;;;26.62;45.40;100386.69;5092676;28;20032;-87
2022/07/08 04:14:51;;;;;;;3.92;1.98;;;;;;;26.62;45.35;100386.69;5090687;28;20461;-88
2022/07/08 04:17:17;;;;;;;4.93;1.65;;;;;;;26.60;45.54;100385.94;5091181;28;20032;-89
2022/07/08 04:19:42;;;;;;;4.57;1.70;;;;;;;26.59;45.36;100392.28;5108608;28;20047;-90
2022/07/08 04:22:08;;;;;;;3.38;1.70;;;;;;;26.60;45.39;100393.97;5093848;28;20031;-90
2022/07/08 04:24:34;;;;;;;3.85;1.92;;;;;;;26.58;45.36;100395.91;5095340;28;20054;-89
2022/07/08 04:27:00;;;;;;;3.10;1.65;;;;;;;26.57;45.53;100395.03;5096817;28;20369;-89
2022/07/08 04:29:25;;;;;;;3.25;1.58;;;;;;;26.54;45.37;100396.13;5129419;28;20023;-88
2022/07/08 04:31:51;;;;;;;6.10;1.98;;;;;;;26.56;45.61;100389.78;5093348;28;20024;-89
2022/07/08 04:34:17;;;;;;;4.35;1.95;;;;;;;26.51;45.83;100393.66;5092871;28;20039;-89
2022/07/08 04:36:42;;;;;;;3.67;2.03;;;;;;;26.49;45.69;100392.91;5092877;28;20096;-89
2022/07/08 04:39:08;;;;;;;6.00;2.25;;;;;;;26.49;45.90;100397.41;5127149;28;20023;-90
2022/07/08 04:41:34;;;;;;;5.75;1.90;;;;;;;26.48;46.13;100401.91;5097817;28;20020;-89
2022/07/08 04:44:00;;;;;;;4.38;1.80;;;;;;;26.46;46.06;100403.84;5095561;28;20039;-91
2022/07/08 04:46:26;;;;;;;3.95;1.80;;;;;;;26.47;45.89;100407.34;5093643;28;20035;-89
2022/07/08 04:48:52;;;;;;;3.05;1.67;;;;;;;26.45;46.11;100412.84;5127741;28;20032;-91
2022/07/08 04:51:18;;;;;;;4.20;1.80;;;;;;;26.48;46.14;100407.25;5093416;28;20065;-89
2022/07/08 04:53:44;;;;;;;5.07;2.00;;;;;;;26.47;46.40;100410.91;5092656;28;20032;-89
2022/07/08 04:56:10;;;;;;;3.15;1.70;;;;;;;26.47;45.97;100404.69;5092172;28;20035;-87
2022/07/08 04:58:36;;;;;;;5.28;1.73;;;;;;;26.44;46.48;100405.75;5093763;28;20061;-88
2022/07/08 05:01:02;;;;;;;4.50;1.80;;;;;;;26.45;46.44;100410.16;5126220;28;20115;-87
2022/07/08 05:03:28;;;;;;;4.65;1.92;;;;;;;26.44;46.48;100411.09;5123793;28;20023;-88
2022/07/08 05:05:54;;;;;;;4.90;1.95;;;;;;;26.42;46.35;100413.03;5088600;28;20020;-88
2022/07/08 05:08:20;;;;;;;5.72;1.70;;;;;;;26.42;46.55;100413.03;5087268;28;20111;-87
2022/07/08 05:10:48;;;;;;;4.10;1.88;;;;;;;26.43;46.56;100416.56;5087184;28;20032;-88
2022/07/08 05:13:14;;;;;;;3.72;2.00;;;;;;;26.41;46.85;100416.69;5105210;28;20023;-87
2022/07/08 05:15:40;;;;;;;5.65;1.98;;;;;;;26.43;46.67;100417.41;5121851;28;20066;-89
2022/07/08 05:18:06;;;;;;;4.50;1.92;;;;;;;26.44;46.63;100423.63;5087655;28;20043;-88
2022/07/08 05:20:32;;;;;;;4.97;2.08;;;;;;;26.42;46.89;100429.09;5089417;28;20055;-88
2022/07/08 05:22:58;;;;;;;3.30;1.70;;;;;;;26.45;46.63;100431.56;5088838;28;20457;-88
2022/07/08 05:25:24;;;;;;;4.90;1.80;;;;;;;26.43;46.57;100420.09;5123291;28;20027;-90
2022/07/08 05:27:50;;;;;;;4.63;1.77;;;;;;;26.43;47.03;100417.41;5091302;28;20024;-87
2022/07/08 05:30:16;;;;;;;4.75;1.63;;;;;;;26.45;46.96;100428.03;5090961;28;20028;-88
2022/07/08 05:32:42;;;;;;;3.63;1.70;;;;;;;26.46;46.97;100422.56;5104697;28;20046;-87
2022/07/08 05:35:09;;;;;;;3.92;2.03;;;;;;;26.46;46.92;100429.72;5088260;28;20107;-88
2022/07/08 05:37:37;;;;;;;4.28;1.88;;;;;;;26.44;47.21;100427.16;5091386;28;20032;-89
2022/07/08 05:40:10;;;;;;;5.28;1.80;;;;;;;26.45;47.05;100431.56;5097928;28;20043;-88
2022/07/08 05:42:36;;;;;;;3.65;1.63;;;;;;;26.46;47.11;100430.59;5098026;28;20023;-88
2022/07/08 05:45:03;;;;;;;4.43;1.80;;;;;;;26.48;47.18;100434.00;5095884;28;20107;-88
2022/07/08 05:47:29;;;;;;;5.78;2.00;;;;;;;26.50;46.90;100437.47;5093563;28;20032;-88
2022/07/08 05:49:54;;;;;;;3.72;1.63;;;;;;;26.50;47.11;100429.44;5094135;28;20043;-88
2022/07/08 05:52:20;;;;;;;4.22;1.83;;;;;;;26.50;47.05;100437.47;5127739;28;20453;-90
2022/07/08 05:54:46;;;;;;;4.13;1.83;;;;;;;26.51;47.16;100431.13;5093535;28;20020;-88
2022/07/08 05:57:12;;;;;;;4.88;2.17;;;;;;;26.53;47.28;100439.91;5093577;28;20034;-88
2022/07/08 05:59:38;;;;;;;5.43;2.30;;;;;;;26.53;47.04;100439.03;5094637;28;20034;-87
2022/07/08 06:02:04;;;;;;;5.22;2.00;;;;;;;26.54;46.82;100438.94;5079070;28;20122;-87
2022/07/08 06:04:30;;;;;;;4.18;2.03;;;;;;;26.56;46.92;100437.97;5129227;28;20027;-89
2022/07/08 06:06:57;;;;;;;5.80;2.13;;;;;;;26.56;47.08;100432.63;5093651;28;20024;-87
2022/07/08 06:09:22;;;;;;;5.28;2.10;;;;;;;26.58;47.12;100439.56;5094712;28;20066;-88
2022/07/08 06:11:48;;;;;;;5.95;1.95;;;;;;;26.59;46.92;100440.44;5094624;28;20391;-89
2022/07/08 06:14:14;;;;;;;4.53;1.80;;;;;;;26.61;47.18;100438.50;5130383;28;20038;-88
2022/07/08 06:16:39;;;;;;;4.75;1.95;;;;;;;26.60;47.08;100440.34;5094661;28;20074;-87
2022/07/08 06:19:05;;;;;;;6.35;1.95;;;;;;;26.63;46.94;100452.66;5095247;28;20085;-88
2022/07/08 06:21:31;;;;;;;4.90;1.80;;;;;;;26.64;46.99;100454.38;5096618;28;20050;-89
2022/07/08 06:23:57;;;;;;;4.05;2.10;;;;;;;26.65;46.95;100450.72;5099414;28;20032;-90
2022/07/08 06:26:23;;;;;;;5.53;1.88;;;;;;;26.64;46.66;100444.50;5092364;28;20563;-90
2022/07/08 06:28:48;;;;;;;2.83;1.67;;;;;;;26.68;47.17;100451.38;5089113;28;20061;-88
2022/07/08 06:31:14;;;;;;;3.42;1.67;;;;;;;26.67;46.67;100460.38;5088560;28;20028;-89
2022/07/08 06:33:40;;;;;;;3.75;2.05;;;;;;;26.69;46.63;100457.59;5130392;28;20028;-87
2022/07/08 06:36:06;;;;;;;3.60;1.90;;;;;;;26.71;46.59;100458.31;5095887;28;20092;-88
2022/07/08 06:38:32;;;;;;;5.32;2.00;;;;;;;26.71;46.53;100452.97;5094486;28;20096;-89
2022/07/08 06:40:59;;;;;;;6.18;2.00;;;;;;;26.74;46.37;100449.22;5092223;28;20052;-87
2022/07/08 06:43:24;;;;;;;4.20;1.90;;;;;;;26.74;46.44;100443.88;5096686;28;20047;-90
2022/07/08 06:45:50;;;;;;;3.47;1.85;;;;;;;26.75;46.28;100450.94;5085846;28;20042;-90
2022/07/08 06:48:16;;;;;;;4.20;2.00;;;;;;;26.77;46.41;100443.63;5101228;28;20027;-90
2022/07/08 06:50:42;;;;;;;3.20;1.80;;;;;;;26.78;46.48;100440.84;5114485;28;20097;-90
2022/07/08 06:53:08;;;;;;;3.33;1.73;;;;;;;26.79;46.12;100442.56;5095366;28;20517;-87
2022/07/08 06:55:34;;;;;;;3.22;1.63;;;;;;;26.80;46.34;100446.97;5094709;28;20031;-89
2022/07/08 06:57:59;;;;;;;3.97;1.88;;;;;;;26.81;46.17;100437.97;5097116;28;20070;-88
2022/07/08 07:00:25;;;;;;;3.75;2.00;;;;;;;26.79;46.22;100437.22;5114582;28;20042;-88
2022/07/08 07:02:51;;;;;;;4.82;2.10;;;;;;;26.83;46.59;100437.88;5090783;28;20024;-89
2022/07/08 07:05:21;;;;;;;3.25;1.90;;;;;;;26.86;46.00;100442.13;5088224;28;20016;-88
2022/07/08 07:07:47;;;;;;;3.92;1.85;;;;;;;26.87;46.09;100441.19;5089572;28;20130;-87
2022/07/08 07:10:13;;;;;;;3.22;1.90;;;;;;;26.88;46.13;100434.88;5089674;28;20027;-89
2022/07/08 07:12:40;;;;;;;4.47;1.90;;;;;;;26.89;46.07;100434.75;5090166;28;20059;-88
2022/07/08 07:15:08;;;;;;;3.80;1.80;;;;;;;26.89;46.02;100431.22;5090734;28;20062;-87
2022/07/08 07:17:34;;;;;;;4.15;1.75;;;;;;;26.91;46.40;100429.28;5091084;28;20024;-87
2022/07/08 07:20:02;;;;;;;3.75;2.15;;;;;;;26.93;46.11;100430.06;5089915;28;20113;-87
2022/07/08 07:22:28;;;;;;;5.40;2.17;;;;;;;26.93;46.12;100427.41;5122361;28;20103;-87
2022/07/08 07:24:54;;;;;;;3.90;1.90;;;;;;;26.95;46.14;100422.78;5088694;28;20052;-88
2022/07/08 07:27:25;;;;;;;3.22;1.90;;;;;;;26.95;46.22;100422.78;5122279;28;20055;-89
2022/07/08 07:29:51;;;;;;;4.43;1.90;;;;;;;26.97;46.14;100415.47;5087678;28;20056;-87
2022/07/08 07:32:20;;;;;;;5.63;2.30;;;;;;;26.97;46.32;100412.78;5092987;28;20043;-88
2022/07/08 07:34:46;;;;;;;3.95;1.90;;;;;;;26.99;46.25;100418.91;5125934;28;20069;-88
2022/07/08 07:37:11;;;;;;;3.65;1.85;;;;;;;26.99;45.93;100410.88;5093023;28;20107;-87
2022/07/08 07:39:39;;;;;;;4.95;2.10;;;;;;;27.00;46.11;100417.06;5125776;28;20028;-88
2022/07/08 07:42:07;;;;;;;4.45;2.08;;;;;;;27.03;46.24;100425.75;5091393;28;20028;-87
2022/07/08 07:44:32;;;;;;;3.63;2.03;;;;;;;27.03;46.28;100417.72;5075248;28;20028;-86
2022/07/08 07:46:58;;;;;;;4.28;2.15;;;;;;;27.04;46.17;100410.53;5087452;28;20032;-86
2022/07/08 07:49:24;;;;;;;4.07;2.05;;;;;;;27.05;46.08;100415.81;5087527;28;20027;-89
2022/07/08 07:51:52;;;;;;;3.90;2.30;;;;;;;27.06;46.41;100417.50;5114079;28;20032;-87
2022/07/08 07:54:18;;;;;;;3.60;2.30;;;;;;;27.08;45.96;100409.38;5127814;28;20032;-88
2022/07/08 07:56:43;;;;;;;2.70;1.88;;;;;;;27.07;46.04;100413.84;5091469;28;20035;-88
2022/07/08 07:59:09;;;;;;;3.63;2.05;;;;;;;27.10;46.07;100411.94;5085395;28;20032;-89
2022/07/08 08:01:34;;;;;;;3.53;1.85;;;;;;;27.10;45.99;100393.19;5131296;28;20038;-88
2022/07/08 08:04:00;;;;;;;3.85;2.42;;;;;;;27.12;45.77;100391.25;5088873;28;20035;-87
2022/07/08 08:06:28;;;;;;;4.50;2.38;;;;;;;27.14;45.82;100389.31;5090778;28;20377;-86
2022/07/08 08:08:56;;;;;;;4.57;2.00;;;;;;;27.15;45.96;100388.31;5125653;28;20028;-87
2022/07/08 08:11:24;;;;;;;4.03;1.85;;;;;;;27.15;46.17;100383.84;5120023;28;20093;-87
2022/07/08 08:13:50;;;;;;;5.60;2.10;;;;;;;27.17;45.74;100378.38;5103122;28;20032;-86
2022/07/08 08:16:18;;;;;;;6.65;2.58;;;;;;;27.17;45.84;100381.06;5124206;28;20479;-87
2022/07/08 08:18:44;;;;;;;4.30;2.08;;;;;;;27.18;45.82;100378.28;5084247;28;20027;-88
2022/07/08 08:21:10;;;;;;;5.43;2.10;;;;;;;27.20;45.66;100380.81;5084840;28;20063;-86
2022/07/08 08:23:37;;;;;;;4.53;2.40;;;;;;;27.22;45.87;100384.25;5087843;28;20024;-88
2022/07/08 08:26:06;;;;;;;4.07;1.83;;;;;;;27.23;46.14;100395.81;5090727;28;20028;-87
2022/07/08 08:28:32;;;;;;;5.78;2.38;;;;;;;27.23;46.01;100379.72;5106241;28;20028;-85
2022/07/08 08:31:15;;;;;;;3.97;1.95;;;;;;;27.26;46.10;100379.53;5096336;28;20028;-90
2022/07/08 08:33:41;;;;;;;4.53;2.28;;;;;;;27.23;45.87;100391.31;5082318;28;20032;-86
2022/07/08 08:36:11;;;;;;;3.28;1.92;;;;;;;27.21;45.88;100382.53;5117167;28;20173;-87
2022/07/08 08:38:37;;;;;;;4.75;2.25;;;;;;;27.21;45.78;100382.53;5083976;28;20028;-88
2022/07/08 08:41:04;;;;;;;4.80;2.13;;;;;;;27.23;45.90;100380.59;5084376;28;20042;-88
2022/07/08 08:43:30;;;;;;;2.92;1.85;;;;;;;27.26;45.92;100377.69;5072058;28;20032;-87
2022/07/08 08:45:56;;;;;;;4.07;2.17;;;;;;;27.27;45.93;100382.09;5086433;28;20067;-87
2022/07/08 08:48:24;;;;;;;3.72;2.15;;;;;;;27.26;45.58;100380.34;5106808;28;20032;-86
2022/07/08 08:50:56;;;;;;;4.93;2.35;;;;;;;27.26;45.45;100375.00;5117198;28;20028;-88
2022/07/08 08:53:37;;;;;;;4.85;2.03;;;;;;;27.28;45.51;100378.44;5080544;28;20027;-85
2022/07/08 08:56:04;;;;;;;3.50;2.05;;;;;;;27.28;45.69;100366.84;5114689;28;20096;-87
2022/07/08 08:58:41;;;;;;;4.10;2.00;;;;;;;27.28;45.65;100373.09;5081739;28;20024;-86
2022/07/08 09:01:07;;;;;;;;;;;;;;;27.34;45.16;100366.41;5078950;28;20135;-86
2022/07/08 09:03:34;;;;;;;4.95;1.80;;;;;;;27.34;45.30;100361.03;5099976;28;20354;-87
2022/07/08 09:06:00;;;;;;;3.00;1.65;;;;;;;27.37;45.03;100370.69;5098704;28;20051;-87
2022/07/08 09:08:26;;;;;;;3.85;2.00;;;;;;;27.39;45.26;100363.38;5098745;28;20069;-88
2022/07/08 09:10:54;;;;;;;5.00;1.85;;;;;;;27.38;45.34;100367.03;5080838;28;20032;-87
2022/07/08 09:13:23;;;;;;;2.92;1.70;;;;;;;27.37;45.13;100370.69;5082577;28;20032;-88
2022/07/08 09:16:00;;;;;;;2.53;1.58;;;;;;;27.38;44.93;100362.53;5085908;28;20095;-89
2022/07/08 09:18:44;;;;;;;3.45;2.13;;;;;;;27.42;44.71;100357.81;5085716;28;20024;-88
2022/07/08 09:21:11;;;;;;;3.20;1.90;;;;;;;27.41;44.81;100356.09;5088299;28;20044;-87
2022/07/08 09:23:38;;;;;;;3.67;1.92;;;;;;;27.41;44.61;100359.59;5102931;28;20028;-87
2022/07/08 09:26:11;;;;;;;3.55;1.90;;;;;;;27.45;44.80;100357.59;5076594;28;20031;-86
2022/07/08 09:28:39;;;;;;;2.63;1.40;;;;;;;27.47;44.82;100358.31;5082768;28;20365;-86
2022/07/08 09:31:09;;;;;;;5.05;2.10;;;;;;;27.49;44.89;100359.03;5078330;28;20039;-86
2022/07/08 09:33:37;;;;;;;3.38;1.70;;;;;;;27.50;44.65;100349.19;5079447;28;20020;-87
2022/07/08 09:36:07;;;;;;;6.18;1.60;;;;;;;27.53;44.59;100352.50;5078602;28;20024;-87
2022/07/08 09:38:37;;;;;;;5.03;1.95;;;;;;;27.55;44.53;100352.38;5083439;28;20043;-87
2022/07/08 09:41:05;;;;;;;4.78;2.10;;;;;;;27.57;44.54;100359.34;5092649;28;20027;-87
2022/07/08 09:43:45;;;;;;;3.65;2.00;;;;;;;27.58;44.43;100349.50;5077139;28;20036;-86
2022/07/08 09:46:13;;;;;;;5.03;1.83;;;;;;;27.59;44.68;100348.50;5079751;28;20103;-86
2022/07/08 09:48:43;;;;;;;6.03;2.00;;;;;;;27.59;44.51;100349.38;5078247;28;20457;-85
2022/07/08 09:51:10;;;;;;;2.47;1.52;;;;;;;27.62;44.66;100353.66;5079960;28;20035;-85
2022/07/08 09:53:39;;;;;;;4.60;1.98;;;;;;;27.61;44.33;100350.09;5077082;28;20035;-86
2022/07/08 09:56:06;;;;;;;4.22;2.20;;;;;;;27.61;44.81;100351.94;5076514;28;20373;-84
2022/07/08 09:58:34;;;;;;;6.35;2.00;;;;;;;27.59;44.64;100349.38;5077170;28;20023;-85
2022/07/08 10:01:00;;;;;;;5.30;2.17;;;;;;;27.60;44.59;100360.97;5063911;28;20397;-85
2022/07/08 10:03:27;;;;;;;5.70;2.55;;;;;;;27.58;44.48;100350.34;5072784;28;20385;-85
2022/07/08 10:05:54;;;;;;;4.25;2.28;;;;;;;27.58;44.46;100347.69;5068828;28;20358;-84
2022/07/08 10:08:23;;;;;;;6.47;2.28;;;;;;;27.61;44.66;100342.06;5082968;28;20027;-86
2022/07/08 10:10:50;;;;;;;3.60;2.03;;;;;;;27.60;44.71;100340.38;5105154;28;20092;-85
2022/07/08 10:13:25;;;;;;;5.95;2.25;;;;;;;27.63;44.35;100338.41;5076610;28;20055;-85
2022/07/08 10:16:02;;;;;;;5.72;2.10;;;;;;;27.63;44.42;100346.44;5087279;28;20066;-85
2022/07/08 10:18:38;;;;;;;6.47;2.38;;;;;;;27.66;44.60;100346.22;5085656;28;20067;-83
2022/07/08 10:21:08;;;;;;;8.32;2.30;;;;;;;27.67;44.31;100345.25;5081160;28;20052;-85
2022/07/08 10:23:46;;;;;;;5.15;2.35;;;;;;;27.69;44.14;100337.97;5056660;28;20029;-87
2022/07/08 10:26:12;;;;;;;4.10;2.17;;;;;;;27.69;43.69;100343.34;5061603;28;20036;-85
2022/07/08 10:28:41;;;;;;;6.25;2.33;;;;;;;27.71;43.72;100334.19;5080152;28;20039;-85
2022/07/08 10:31:21;;;;;;;5.65;2.03;;;;;;;27.73;43.67;100344.78;5066588;28;20035;-85
2022/07/08 10:33:48;;;;;;;7.63;2.53;;;;;;;27.73;43.61;100334.94;5099215;28;20025;-85
2022/07/08 10:36:20;;;;;;;7.28;2.63;;;;;;;27.76;43.44;100333.84;5063137;28;20351;-86
2022/07/08 10:38:50;;;;;;;6.57;2.40;;;;;;;27.81;43.90;100326.31;5066351;28;20096;-86
2022/07/08 10:41:22;;;;;;;6.18;2.42;;;;;;;27.85;43.76;100332.28;5063164;28;20060;-86
2022/07/08 10:43:52;;;;;;;4.18;2.00;;;;;;;27.86;43.74;100334.84;5060989;28;20029;-86
2022/07/08 10:46:26;;;;;;;6.97;2.20;;;;;;;27.90;43.64;100334.59;5063503;28;20028;-86
2022/07/08 10:49:00;;;;;;;6.75;2.42;;;;;;;27.87;43.38;100331.19;5097446;28;20466;-88
2022/07/08 10:51:27;;;;;;;6.25;2.35;;;;;;;27.87;43.25;100324.97;5074163;28;20020;-84
2022/07/08 10:53:57;;;;;;;4.32;2.00;;;;;;;27.88;43.12;100337.41;5062629;28;20033;-85
2022/07/08 10:56:58;;;;;;;4.75;1.88;;;;;;;27.90;43.28;100332.78;5062678;28;20411;-85
2022/07/08 10:59:26;;;;;;;5.35;2.22;;;;;;;27.90;43.51;100330.09;5056543;28;20036;-85
2022/07/08 11:02:09;;;;;;;4.40;1.95;;;;;;;27.92;43.05;100321.91;5059563;28;20025;-83
2022/07/08 11:04:47;;;;;;;4.57;2.35;;;;;;;27.95;43.22;100316.34;5047286;28;20029;-85
2022/07/08 11:07:24;;;;;;;6.60;2.10;;;;;;;27.97;42.91;100303.66;5090322;28;20043;-83
2022/07/08 11:09:54;;;;;;;4.93;1.90;;;;;;;27.99;42.76;100309.75;5051398;28;20033;-84
2022/07/08 11:12:28;;;;;;;4.95;2.03;;;;;;;28.00;43.13;100314.16;5089525;28;20033;-83
2022/07/08 11:14:57;;;;;;;4.10;2.05;;;;;;;28.03;42.83;100308.53;5049642;28;20170;-84
2022/07/08 11:17:33;;;;;;;4.25;2.10;;;;;;;28.04;42.93;100304.03;5070649;28;20040;-86
2022/07/08 11:20:00;;;;;;;;;;;;;;;28.05;42.80;100301.25;5051841;28;20052;-87
2022/07/08 11:22:32;;;;;;;4.95;2.28;;;;;;;28.07;42.78;100301.97;5095076;28;19923;-88
2022/07/08 11:25:06;;;;;;;4.10;2.05;;;;;;;28.09;42.77;100302.69;5064651;28;20024;-87
2022/07/08 11:27:34;;;;;;;4.45;2.35;;;;;;;28.12;42.40;100286.34;5077353;28;20033;-87
2022/07/08 11:30:02;;;;;;;4.13;2.00;;;;;;;28.11;42.64;100303.44;5063587;28;20028;-85